Terminal Aerodrome Forecast
Issued by NWS Austin/San Antonio, TX

Home | Current Version | Previous Version | Text Only | Print | Product List | Glossary On
Versions: 1 2 3 4 5 6 7 8 9 10 11 12 13 14 15 16 17 18 19 20 21 22 23
000
FTUS44 KEWX 251129
TAFSAT
TAF
KSAT 251129Z 2512/2618 20008KT P6SM SKC
     FM251400 18015G25KT P6SM FEW250
     FM260500 17012KT P6SM BKN016
     FM261700 17010KT P6SM SCT024=

USA.gov is the U.S. government's official web portal to all federal, state and local government web resources and services.